Decoded Metar for LZZI (ZILINA in SLOVAKIA) (IATA:N/A) | Meteo·Mobile Aviation Weather
aviador You're here:

LZZI Decoded Metar

ZILINA in SLOVAKIA
Report Time2019-11-16 01:30:00
UTC Time2019-11-16 02:03:06
Flight Rules vfr VFR
Wind160° at 08 kt
W.Decomp.*RWY 24: 1.0 kt HW 7.9 kt LCW
Visibility9999 m
Phenomena:N/A
Clouds:Few 035 Hf
Expected CloudBase > 2,400 ft AGL from Temp-Dew spread
CeilingNone
Temp13°C (ISA 0)
Dew Point07°C (67% RH)
AAT9.4°C
QNH1011 hPa
Density Alt1,230 ft
Elevation1,020 ft
Report Wrong Elevation
Raw Report
LZZI 160130Z 16008KT 110V220 9999 FEW035 13/07 Q1011=

Extra information for LZZI:More info

Metar Taf Metar & Taf Last 4 Metars F.Rules Stats Wind Profile Meteogram Temp Stats Airport Information Weather charts Add Link Nearby VenuesMetar ALERT Operation Metar Decoded Social comments